createdAt,value
2022-08-03T00:02:36.312Z,964.06
2022-08-03T00:07:37.487Z,964.07
2022-08-03T00:12:39.613Z,964.09
2022-08-03T00:17:53.158Z,964.05
2022-08-03T00:22:42.730Z,964.05
2022-08-03T00:27:44.128Z,964.06
2022-08-03T00:32:46.254Z,964.08
2022-08-03T00:37:48.205Z,964.08
2022-08-03T00:42:50.281Z,964.08
2022-08-03T00:47:51.689Z,964.05
2022-08-03T00:52:53.577Z,964.07
2022-08-03T00:57:54.975Z,964.06
2022-08-03T01:02:56.375Z,964.09
2022-08-03T01:07:58.462Z,964.07
2022-08-03T01:13:00.072Z,964.03
2022-08-03T01:18:01.790Z,964.03
2022-08-03T01:23:03.844Z,963.96
2022-08-03T01:28:05.783Z,963.94
2022-08-03T01:33:07.264Z,963.94
2022-08-03T01:38:08.403Z,963.93
2022-08-03T01:43:09.824Z,963.92
2022-08-03T01:48:11.361Z,963.93
2022-08-03T01:53:12.902Z,963.87
2022-08-03T01:58:15.042Z,963.88
2022-08-03T02:03:17.030Z,963.82
2022-08-03T02:08:18.265Z,963.9
2022-08-03T02:13:19.911Z,963.83
2022-08-03T02:18:21.356Z,963.85
2022-08-03T02:23:23.278Z,963.87
2022-08-03T02:28:25.446Z,963.86
2022-08-03T02:33:27.539Z,963.88
2022-08-03T02:38:29.514Z,963.96
2022-08-03T02:43:39.134Z,963.89
2022-08-03T02:48:32.302Z,963.91
2022-08-03T02:53:33.829Z,963.87
2022-08-03T02:58:35.922Z,963.87
2022-08-03T03:03:40.061Z,963.83
2022-08-03T03:08:38.824Z,963.83
2022-08-03T03:13:40.510Z,963.81
2022-08-03T03:18:42.408Z,963.73
2022-08-03T03:23:44.321Z,963.76
2022-08-03T03:28:45.667Z,963.77
2022-08-03T03:33:47.370Z,963.82
2022-08-03T03:38:49.100Z,963.83
2022-08-03T04:09:06.806Z,963.92
2022-08-03T04:24:11.440Z,964
2022-08-03T04:34:15.172Z,964
2022-08-03T04:44:18.279Z,964.05
2022-08-03T04:49:20.322Z,964.08
2022-08-03T04:54:21.632Z,964.13
2022-08-03T04:59:23.068Z,964.2
2022-08-03T05:04:24.293Z,964.18
2022-08-03T05:09:33.502Z,964.2
2022-08-03T05:14:27.979Z,964.26
2022-08-03T05:19:29.300Z,964.28
2022-08-03T05:24:30.670Z,964.29
2022-08-03T05:29:40.667Z,964.31
2022-08-03T05:34:34.250Z,964.31
2022-08-03T05:39:36.251Z,964.32
2022-08-03T05:44:37.880Z,964.39
2022-08-03T05:49:39.549Z,964.3
2022-08-03T05:54:55.708Z,964.29
2022-08-03T05:59:53.742Z,964.32
2022-08-03T06:04:44.144Z,964.27
2022-08-03T06:10:33.683Z,964.31
2022-08-03T06:14:46.915Z,964.29
2022-08-03T06:19:48.412Z,964.36
2022-08-03T06:24:53.313Z,964.34
2022-08-03T06:29:51.519Z,964.35
2022-08-03T06:34:53.297Z,964.47
2022-08-03T06:39:55.028Z,964.47
2022-08-03T06:44:57.065Z,964.41
2022-08-03T06:50:12.512Z,964.39
2022-08-03T06:55:00.893Z,964.44
2022-08-03T07:00:05.925Z,964.42
2022-08-03T07:05:04.445Z,964.4
2022-08-03T07:10:06.360Z,964.37
2022-08-03T07:15:07.724Z,964.36
2022-08-03T07:20:09.570Z,964.32
2022-08-03T07:25:10.753Z,964.34
2022-08-03T07:30:12.589Z,964.24
2022-08-03T07:35:22.771Z,964.24
2022-08-03T07:40:15.652Z,964.2
2022-08-03T07:45:17.341Z,964.2
2022-08-03T07:50:18.963Z,964.2
2022-08-03T07:55:20.788Z,964.18
2022-08-03T08:00:22.035Z,964.18
2022-08-03T08:05:23.246Z,964.05
2022-08-03T08:10:24.731Z,964.03
2022-08-03T08:15:26.722Z,963.99
2022-08-03T08:20:30.426Z,964
2022-08-03T08:25:30.157Z,964
2022-08-03T08:30:31.406Z,963.96
2022-08-03T08:35:33.329Z,964.01
2022-08-03T08:40:35.156Z,963.99
2022-08-03T08:45:37.078Z,963.94
2022-08-03T08:50:38.334Z,963.97
2022-08-03T08:55:56.981Z,963.9
2022-08-03T09:00:42.228Z,963.9
2022-08-03T09:05:55.628Z,963.88
2022-08-03T09:10:45.529Z,963.84
2022-08-03T09:15:52.785Z,963.81
2022-08-03T09:20:48.840Z,963.84
2022-08-03T09:25:50.159Z,963.88
2022-08-03T09:30:51.841Z,963.86
2022-08-03T09:35:54.342Z,963.83
2022-08-03T09:40:59.420Z,963.83
2022-08-03T09:45:56.588Z,963.87
2022-08-03T09:51:12.643Z,963.86
2022-08-03T09:56:32.596Z,963.87
2022-08-03T10:01:02.793Z,963.91
2022-08-03T10:06:12.218Z,963.81
2022-08-03T10:11:05.596Z,963.76
2022-08-03T10:16:20.985Z,963.72
2022-08-03T10:21:09.180Z,963.72
2022-08-03T10:26:10.418Z,963.67
2022-08-03T10:31:12.174Z,963.65
2022-08-03T10:36:13.558Z,963.62
2022-08-03T10:41:15.733Z,963.61
2022-08-03T10:46:17.141Z,963.6
2022-08-03T10:51:18.330Z,963.46
2022-08-03T10:56:20.348Z,963.44
2022-08-03T11:01:21.931Z,963.39
2022-08-03T11:06:37.331Z,963.27
2022-08-03T11:11:26.138Z,963.28
2022-08-03T11:16:27.798Z,963.3
2022-08-03T11:21:30.481Z,963.31
2022-08-03T11:26:31.624Z,963.28
2022-08-03T11:31:49.077Z,963.25
2022-08-03T11:36:37.749Z,963.28
2022-08-03T11:41:42.894Z,963.23
2022-08-03T11:46:38.615Z,963.22
2022-08-03T11:51:40.355Z,963.15
2022-08-03T11:56:42.215Z,963.12
2022-08-03T12:01:44.364Z,963.13
2022-08-03T12:06:47.369Z,963.08
2022-08-03T12:11:50.855Z,962.94
2022-08-03T12:16:49.095Z,962.91
2022-08-03T12:21:56.512Z,962.9
2022-08-03T12:26:59.074Z,962.85
2022-08-03T12:31:53.884Z,962.78
2022-08-03T12:36:55.910Z,962.84
2022-08-03T12:41:57.379Z,962.82
2022-08-03T12:46:59.382Z,962.85
2022-08-03T12:52:04.026Z,962.83
2022-08-03T12:57:02.197Z,962.8
2022-08-03T13:02:04.629Z,962.73
2022-08-03T13:07:04.761Z,962.78
2022-08-03T13:12:08.223Z,962.67
2022-08-03T13:17:08.081Z,962.67
2022-08-03T13:22:09.938Z,962.71
2022-08-03T13:27:22.588Z,962.74
2022-08-03T13:32:13.037Z,962.5
2022-08-03T13:37:15.119Z,962.62
2022-08-03T13:42:17.092Z,962.56
2022-08-03T13:47:18.889Z,962.56
2022-08-03T13:52:21.100Z,962.45
2022-08-03T13:58:01.498Z,962.41
2022-08-03T14:02:24.496Z,962.41
2022-08-03T14:07:25.917Z,962.34
2022-08-03T14:12:27.300Z,962.27
2022-08-03T14:17:37.506Z,962.3
2022-08-03T14:22:31.345Z,962.18
2022-08-03T14:27:32.562Z,962.19
2022-08-03T14:32:33.936Z,962.18
2022-08-03T14:37:35.430Z,962.24
2022-08-03T14:42:37.241Z,962.14
2022-08-03T14:50:10.248Z,962.14
2022-08-03T14:52:40.748Z,962.07
2022-08-03T14:57:42.469Z,962.09
2022-08-03T15:02:44.587Z,962.06
2022-08-03T15:07:46.621Z,962.02
2022-08-03T15:12:48.710Z,961.98
2022-08-03T15:17:59.968Z,962
2022-08-03T15:22:52.038Z,961.87
2022-08-03T15:28:03.271Z,961.93
2022-08-03T15:32:56.034Z,961.94
2022-08-03T15:37:58.011Z,961.93
2022-08-03T15:42:59.460Z,961.95
2022-08-03T15:48:01.187Z,961.9
2022-08-03T15:53:02.377Z,961.8
2022-08-03T15:58:59.280Z,961.87
2022-08-03T16:03:05.158Z,961.8
2022-08-03T16:08:10.372Z,961.77
2022-08-03T16:13:09.054Z,961.8
2022-08-03T16:18:11.044Z,961.79
2022-08-03T16:23:12.657Z,961.78
2022-08-03T16:28:14.569Z,961.8
2022-08-03T16:33:17.148Z,961.71
2022-08-03T16:38:19.019Z,961.69
2022-08-03T16:43:19.166Z,961.72
2022-08-03T16:48:19.432Z,961.69
2022-08-03T16:53:33.024Z,961.73
2022-08-03T16:58:24.265Z,961.68
2022-08-03T17:03:25.234Z,961.68
2022-08-03T17:08:27.502Z,961.68
2022-08-03T17:13:39.007Z,961.68
2022-08-03T17:18:30.449Z,961.74
2022-08-03T17:23:35.080Z,961.72
2022-08-03T17:28:42.776Z,961.76
2022-08-03T17:33:35.823Z,961.83
2022-08-03T17:38:37.157Z,961.8
2022-08-03T17:43:44.214Z,961.83
2022-08-03T17:48:41.268Z,961.86
2022-08-03T17:53:41.931Z,961.92
2022-08-03T17:58:43.622Z,961.96
2022-08-03T18:03:57.083Z,962.08
2022-08-03T18:13:53.272Z,962.14
2022-08-03T18:49:00.027Z,962.27
2022-08-03T18:54:03.493Z,962.25
2022-08-03T18:59:03.292Z,962.31
2022-08-03T19:14:08.667Z,962.34
2022-08-03T19:29:15.269Z,962.47
2022-08-03T19:34:14.737Z,962.45
2022-08-03T19:39:25.224Z,962.54
2022-08-03T19:49:20.040Z,962.57
2022-08-03T19:54:29.297Z,962.6
2022-08-03T19:59:23.522Z,962.52
2022-08-03T20:04:25.424Z,962.52
2022-08-03T20:09:30.459Z,962.52
2022-08-03T20:14:44.218Z,962.55
2022-08-03T20:19:32.554Z,962.59
2022-08-03T20:24:31.849Z,962.57
2022-08-03T20:29:42.913Z,962.59
2022-08-03T20:34:41.533Z,962.64
2022-08-03T20:39:48.361Z,962.58
2022-08-03T20:44:44.507Z,962.54
2022-08-03T20:49:46.577Z,962.6
2022-08-03T20:54:58.062Z,962.58
2022-08-03T20:59:50.898Z,962.59
2022-08-03T21:04:51.069Z,962.56
2022-08-03T21:09:52.409Z,962.53
2022-08-03T21:14:53.957Z,962.53
2022-08-03T21:19:56.042Z,962.54
2022-08-03T21:24:57.417Z,962.54
2022-08-03T21:29:59.051Z,962.52
2022-08-03T21:35:00.892Z,962.48
2022-08-03T21:40:02.335Z,962.43
2022-08-03T21:45:04.156Z,962.39
2022-08-03T21:50:09.339Z,962.39
2022-08-03T21:55:07.519Z,962.4
2022-08-03T22:15:14.885Z,962.43
2022-08-03T22:20:16.690Z,962.45
2022-08-03T22:25:18.034Z,962.43
2022-08-03T22:30:19.331Z,962.43
2022-08-03T22:35:20.689Z,962.4
2022-08-03T22:40:22.331Z,962.36
2022-08-03T22:45:45.524Z,962.37
2022-08-03T22:50:31.017Z,962.41
2022-08-03T22:55:27.900Z,962.44
2022-08-03T23:00:29.493Z,962.44
2022-08-03T23:05:59.941Z,962.46
2022-08-03T23:10:32.296Z,962.46
2022-08-03T23:15:33.980Z,962.49
2022-08-03T23:20:36.012Z,962.47
2022-08-03T23:25:41.246Z,962.47
2022-08-03T23:30:38.917Z,962.48
2022-08-03T23:36:09.281Z,962.46
2022-08-03T23:40:42.225Z,962.46
2022-08-03T23:45:43.520Z,962.43
2022-08-03T23:50:45.256Z,962.42
2022-08-03T23:55:46.935Z,962.43
